Provincetown III — WDB8185 — position and weather

sailwx.info

Track history (hours):
 
Tides and Currents Weather Stations Pressure Air Temp Water Temp Dewpoint Dewpoint Depression Visibility Wind Speed Wind Dir Waves Ship Positions

Provincetown III

Owner: MYSTIC FERRY LEASING LLC, BOSTON, MA. More information available from US FCC via Universal Licensing System and Coast Guard Vessel Documentation Center.

Last reported at 2016-May-30 12:34 UTC. Time now 2016-May-30 12:42 UTC.
Position N 42°18' W 070°48'.

Length 30 m; draft 2 m.

Type: Passenger vessel. MMSI: 366954420.

Date/timePositionNaut miles runAvg speedWind from/ knotsBaromVisibWave heightAir tempDewpointWater temp
2016-May-30 12:34N 42°18' W 070°48'11 1.0
2016-May-30 01:05N 42°21' W 071°02'714.0
2016-May-30 00:34N 42°19' W 070°53'1 0.0
2016-May-29 12:34N 42°19' W 070°53'7 7.0
2016-May-29 11:33N 42°21' W 071°02'0 0.1
2016-May-29 10:33N 42°21' W 071°02'0 0.0
2016-May-28 16:12N 42°21' W 071°02'1320.7
2016-May-28 15:34N 42°17' W 070°46'9 2.9
2016-May-28 12:34N 42°20' W 070°56'5 0.4
2016-May-28 01:13N 42°21' W 071°02'9 2.4
2016-May-27 21:26N 42°19' W 070°51'910.5
2016-May-27 20:33N 42°21' W 071°02'1 0.3
2016-May-27 16:34N 42°21' W 071°01'1 1.2
2016-May-27 15:33N 42°21' W 071°02'  
2016-May-25 01:19N 42°21' W 071°02'1924.7
2016-May-25 00:33N 42°13' W 070°40'1 0.5
2016-May-24 22:11N 42°14' W 070°41'1727.4
2016-May-24 21:33N 42°21' W 071°02'4 4.5
2016-May-24 20:34N 42°20' W 070°56'8 2.7
2016-May-24 17:33N 42°17' W 070°46'1312.8
2016-May-24 16:33N 42°21' W 071°02'1919.3
2016-May-24 15:33N 42°14' W 070°39'0 0.1
2016-May-24 13:19N 42°14' W 070°38'1925.5
2016-May-24 12:33N 42°21' W 071°02'0 0.0
2016-May-24 01:07N 42°21' W 071°02'1628.5
2016-May-24 00:33N 42°15' W 070°42'3 1.3
2016-May-23 22:16N 42°14' W 070°39'1926.8
2016-May-23 21:33N 42°21' W 071°02'4 3.7
2016-May-23 20:34N 42°20' W 070°57'9 2.9
2016-May-23 17:33N 42°17' W 070°46'1312.5
2016-May-23 16:33N 42°21' W 071°03'2019.5
2016-May-23 15:32N 42°13' W 070°38'20 6.7
2016-May-23 12:33N 42°21' W 071°02'0 0.0
2016-May-23 01:09N 42°21' W 071°02'1728.7
2016-May-23 00:33N 42°15' W 070°41'1 0.3
2016-May-22 22:12N 42°14' W 070°40'1827.6
2016-May-22 21:33N 42°21' W 071°02'1111.1
2016-May-22 20:33N 42°17' W 070°48'  
Track history (hours):
 
Tides and Currents Weather Stations Pressure Air Temp Water Temp Dewpoint Dewpoint Depression Visibility Wind Speed Wind Dir Waves Ship Positions

Provincetown III

Owner: MYSTIC FERRY LEASING LLC, BOSTON, MA. More information available from US FCC via Universal Licensing System and Coast Guard Vessel Documentation Center.

Last reported at 2016-May-30 12:34 UTC. Time now 2016-May-30 12:42 UTC.
Position N 42°18' W 070°48'.

Length 30 m; draft 2 m.

Type: Passenger vessel. MMSI: 366954420.

Date/timePositionNaut miles runAvg speedWind from/ knotsBaromVisibWave heightAir tempDewpointWater temp
2016-May-30 12:34N 42°18' W 070°48'11 1.0
2016-May-30 01:05N 42°21' W 071°02'714.0
2016-May-30 00:34N 42°19' W 070°53'1 0.0
2016-May-29 12:34N 42°19' W 070°53'7 7.0
2016-May-29 11:33N 42°21' W 071°02'0 0.1
2016-May-29 10:33N 42°21' W 071°02'0 0.0
2016-May-28 16:12N 42°21' W 071°02'1320.7
2016-May-28 15:34N 42°17' W 070°46'9 2.9
2016-May-28 12:34N 42°20' W 070°56'5 0.4
2016-May-28 01:13N 42°21' W 071°02'9 2.4
2016-May-27 21:26N 42°19' W 070°51'910.5
2016-May-27 20:33N 42°21' W 071°02'1 0.3
2016-May-27 16:34N 42°21' W 071°01'1 1.2
2016-May-27 15:33N 42°21' W 071°02'  
2016-May-25 01:19N 42°21' W 071°02'1924.7
2016-May-25 00:33N 42°13' W 070°40'1 0.5
2016-May-24 22:11N 42°14' W 070°41'1727.4
2016-May-24 21:33N 42°21' W 071°02'4 4.5
2016-May-24 20:34N 42°20' W 070°56'8 2.7
2016-May-24 17:33N 42°17' W 070°46'1312.8
2016-May-24 16:33N 42°21' W 071°02'1919.3
2016-May-24 15:33N 42°14' W 070°39'0 0.1
2016-May-24 13:19N 42°14' W 070°38'1925.5
2016-May-24 12:33N 42°21' W 071°02'0 0.0
2016-May-24 01:07N 42°21' W 071°02'1628.5
2016-May-24 00:33N 42°15' W 070°42'3 1.3
2016-May-23 22:16N 42°14' W 070°39'1926.8
2016-May-23 21:33N 42°21' W 071°02'4 3.7
2016-May-23 20:34N 42°20' W 070°57'9 2.9
2016-May-23 17:33N 42°17' W 070°46'1312.5
2016-May-23 16:33N 42°21' W 071°03'2019.5
2016-May-23 15:32N 42°13' W 070°38'20 6.7
2016-May-23 12:33N 42°21' W 071°02'0 0.0
2016-May-23 01:09N 42°21' W 071°02'1728.7
2016-May-23 00:33N 42°15' W 070°41'1 0.3
2016-May-22 22:12N 42°14' W 070°40'1827.6
2016-May-22 21:33N 42°21' W 071°02'1111.1
2016-May-22 20:33N 42°17' W 070°48'  

Dump ship's entire track history